createdAt,value
2022-09-28T00:01:47.384Z,15.00
2022-09-28T00:04:23.000Z,16.03
2022-09-28T00:06:58.779Z,16.00
2022-09-28T00:09:34.669Z,15.27
2022-09-28T00:12:11.023Z,14.90
2022-09-28T00:14:52.482Z,15.33
2022-09-28T00:17:31.063Z,16.13
2022-09-28T00:20:08.894Z,16.60
2022-09-28T00:22:45.255Z,16.63
2022-09-28T00:25:23.576Z,18.93
2022-09-28T00:28:00.005Z,16.93
2022-09-28T00:30:35.962Z,16.83
2022-09-28T00:33:15.100Z,16.97
2022-09-28T00:35:49.989Z,15.07
2022-09-28T00:38:25.273Z,15.83
2022-09-28T00:41:01.679Z,15.97
2022-09-28T00:43:38.778Z,16.17
2022-09-28T00:46:20.174Z,15.67
2022-09-28T00:49:04.406Z,15.07
2022-09-28T00:51:46.183Z,13.03
2022-09-28T00:54:25.971Z,14.57
2022-09-28T00:57:02.250Z,14.95
2022-09-28T00:59:38.468Z,14.32
2022-09-28T01:02:14.867Z,12.93
2022-09-28T01:04:53.511Z,13.23
2022-09-28T01:07:33.212Z,13.25
2022-09-28T01:10:10.033Z,12.75
2022-09-28T01:12:45.854Z,12.55
2022-09-28T01:15:26.062Z,11.68
2022-09-28T01:18:17.816Z,12.77
2022-09-28T01:21:06.677Z,12.63
2022-09-28T01:24:12.382Z,11.77
2022-09-28T01:27:10.323Z,12.13
2022-09-28T01:29:59.470Z,9.93
2022-09-28T01:32:43.205Z,10.35
2022-09-28T01:35:23.060Z,11.15
2022-09-28T01:38:03.108Z,9.80
2022-09-28T01:40:45.560Z,10.70
2022-09-28T01:43:30.922Z,10.23
2022-09-28T01:46:12.964Z,10.15
2022-09-28T01:48:55.953Z,10.38
2022-09-28T01:51:38.773Z,10.30
2022-09-28T01:54:19.379Z,9.82
2022-09-28T01:57:04.621Z,9.15
2022-09-28T01:59:45.228Z,9.68
2022-09-28T02:02:24.409Z,9.65
2022-09-28T02:05:08.293Z,9.75
2022-09-28T02:07:49.721Z,10.48
2022-09-28T02:10:35.480Z,10.63
2022-09-28T02:13:17.840Z,10.13
2022-09-28T02:16:06.903Z,10.68
2022-09-28T02:18:43.677Z,10.40
2022-09-28T02:21:28.286Z,10.68
2022-09-28T02:24:10.812Z,10.18
2022-09-28T02:26:55.605Z,11.63
2022-09-28T02:29:31.565Z,10.60
2022-09-28T02:32:14.047Z,9.82
2022-09-28T02:34:53.618Z,8.98
2022-09-28T02:37:34.697Z,9.70
2022-09-28T02:40:25.523Z,10.15
2022-09-28T02:43:15.756Z,9.32
2022-09-28T02:46:27.191Z,8.48
2022-09-28T02:49:29.842Z,9.05
2022-09-28T02:52:33.722Z,9.15
2022-09-28T02:55:29.304Z,9.20
2022-09-28T02:58:20.759Z,8.93
2022-09-28T03:01:05.011Z,7.80
2022-09-28T03:04:02.242Z,8.63
2022-09-28T03:06:50.994Z,9.13
2022-09-28T03:09:32.005Z,8.85
2022-09-28T03:12:16.279Z,7.90
2022-09-28T03:15:13.916Z,8.43
2022-09-28T03:17:52.573Z,8.07
2022-09-28T03:20:29.333Z,7.95
2022-09-28T03:23:29.683Z,8.20
2022-09-28T03:26:12.981Z,7.70
2022-09-28T03:29:00.427Z,7.30
2022-09-28T03:31:39.123Z,7.85
2022-09-28T03:34:20.023Z,7.03
2022-09-28T03:36:57.344Z,6.95
2022-09-28T03:39:35.360Z,5.95
2022-09-28T03:42:11.720Z,5.82
2022-09-28T03:44:58.223Z,5.90
2022-09-28T03:47:36.504Z,4.70
2022-09-28T03:50:12.749Z,6.35
2022-09-28T03:52:50.178Z,5.28
2022-09-28T03:55:35.216Z,5.68
2022-09-28T03:58:12.597Z,5.00
2022-09-28T04:00:54.295Z,5.10
2022-09-28T04:03:34.919Z,5.50
2022-09-28T04:06:13.212Z,5.95
2022-09-28T04:08:51.050Z,6.90
2022-09-28T04:11:47.617Z,6.07
2022-09-28T04:14:33.763Z,6.18
2022-09-28T04:17:12.693Z,7.57
2022-09-28T04:19:56.989Z,8.10
2022-09-28T04:22:51.888Z,11.50
2022-09-28T04:25:37.300Z,10.90
2022-09-28T04:28:32.297Z,8.70
2022-09-28T04:31:26.381Z,8.15
2022-09-28T04:34:08.475Z,9.63
2022-09-28T04:36:53.755Z,11.75
2022-09-28T04:39:39.433Z,10.15
2022-09-28T04:42:23.365Z,9.68
2022-09-28T04:45:07.353Z,10.27
2022-09-28T04:47:56.655Z,10.40
2022-09-28T04:51:05.431Z,11.48
2022-09-28T04:53:46.395Z,10.10
2022-09-28T04:56:30.618Z,10.57
2022-09-28T04:59:13.738Z,10.93
2022-09-28T05:02:01.418Z,9.70
2022-09-28T05:04:47.028Z,11.48
2022-09-28T05:08:02.994Z,11.63
2022-09-28T05:10:52.982Z,11.50
2022-09-28T05:13:34.913Z,9.95
2022-09-28T05:16:19.362Z,9.18
2022-09-28T05:19:22.519Z,10.25
2022-09-28T05:22:06.311Z,10.70
2022-09-28T05:24:47.801Z,12.27
2022-09-28T05:27:30.559Z,10.68
2022-09-28T05:30:14.771Z,10.52
2022-09-28T05:33:26.249Z,11.13
2022-09-28T05:36:29.614Z,9.70
2022-09-28T05:39:13.075Z,8.27
2022-09-28T05:41:52.123Z,9.07
2022-09-28T05:44:30.259Z,7.90
2022-09-28T05:47:08.232Z,9.18
2022-09-28T05:49:53.506Z,8.35
2022-09-28T05:52:37.545Z,9.43
2022-09-28T05:55:21.758Z,10.30
2022-09-28T05:58:05.616Z,9.48
2022-09-28T06:00:43.379Z,9.73
2022-09-28T06:03:24.113Z,9.02
2022-09-28T06:06:00.252Z,10.23
2022-09-28T06:08:47.598Z,11.95
2022-09-28T06:11:41.120Z,11.32
2022-09-28T06:14:45.870Z,14.20
2022-09-28T06:17:24.981Z,13.20
2022-09-28T06:20:27.567Z,13.05
2022-09-28T06:23:21.653Z,14.55
2022-09-28T06:26:17.526Z,13.70
2022-09-28T06:28:55.689Z,11.75
2022-09-28T06:31:33.162Z,10.82
2022-09-28T06:34:18.944Z,11.95
2022-09-28T06:36:56.551Z,10.20
2022-09-28T06:39:44.056Z,9.77
2022-09-28T06:42:23.917Z,11.18
2022-09-28T06:45:27.176Z,10.13
2022-09-28T06:48:19.323Z,9.50
2022-09-28T06:50:58.393Z,9.05
2022-09-28T06:53:42.764Z,8.55
2022-09-28T06:56:35.776Z,8.35
2022-09-28T06:59:19.943Z,7.97
2022-09-28T07:01:59.582Z,7.47
2022-09-28T07:05:00.711Z,8.00
2022-09-28T07:08:06.841Z,7.80
2022-09-28T07:10:57.644Z,7.40
2022-09-28T07:13:52.094Z,7.90
2022-09-28T07:17:08.504Z,7.70
2022-09-28T07:19:47.838Z,7.38
2022-09-28T07:22:41.835Z,7.88
2022-09-28T07:25:27.307Z,7.00
2022-09-28T07:28:19.922Z,7.70
2022-09-28T07:31:22.318Z,8.18
2022-09-28T07:34:29.192Z,7.03
2022-09-28T07:37:15.727Z,6.95
2022-09-28T07:40:13.194Z,7.10
2022-09-28T07:42:58.077Z,6.57
2022-09-28T07:45:51.049Z,7.00
2022-09-28T07:49:00.921Z,6.53
2022-09-28T07:52:03.978Z,7.03
2022-09-28T07:54:57.050Z,6.65
2022-09-28T07:57:54.655Z,7.10
2022-09-28T08:00:48.908Z,5.60
2022-09-28T08:03:42.494Z,5.88
2022-09-28T08:06:37.158Z,5.25
2022-09-28T08:09:38.299Z,5.30
2022-09-28T08:12:32.016Z,5.10
2022-09-28T08:15:38.358Z,5.22
2022-09-28T08:18:32.840Z,5.47
2022-09-28T08:21:25.607Z,5.82
2022-09-28T08:24:21.269Z,5.05
2022-09-28T08:27:00.798Z,6.00
2022-09-28T08:29:40.297Z,5.40
2022-09-28T08:32:44.287Z,5.35
2022-09-28T08:35:41.650Z,6.50
2022-09-28T08:38:25.034Z,6.10
2022-09-28T08:41:38.195Z,6.20
2022-09-28T08:44:54.005Z,6.37
2022-09-28T08:48:13.370Z,6.45
2022-09-28T08:51:12.082Z,6.70
2022-09-28T08:54:29.742Z,6.93
2022-09-28T08:57:27.716Z,6.30
2022-09-28T09:00:13.154Z,6.40
2022-09-28T09:02:50.850Z,6.27
2022-09-28T09:05:53.339Z,6.40
2022-09-28T09:09:04.125Z,6.20
2022-09-28T09:12:05.887Z,6.40
2022-09-28T09:15:07.629Z,6.20
2022-09-28T09:17:55.214Z,6.03
2022-09-28T09:21:04.562Z,5.93
2022-09-28T09:23:59.068Z,5.90
2022-09-28T09:26:46.929Z,6.20
2022-09-28T09:29:57.953Z,5.47
2022-09-28T09:33:15.371Z,6.30
2022-09-28T09:36:37.595Z,6.63
2022-09-28T09:39:48.269Z,6.70
2022-09-28T09:42:59.431Z,6.57
2022-09-28T09:46:04.083Z,6.40
2022-09-28T09:49:11.555Z,6.53
2022-09-28T09:52:00.931Z,7.47
2022-09-28T09:54:49.063Z,8.00
2022-09-28T09:57:45.301Z,7.87
2022-09-28T10:00:38.968Z,8.40
2022-09-28T10:03:31.807Z,8.37
2022-09-28T10:06:32.793Z,8.17
2022-09-28T10:09:16.270Z,8.63
2022-09-28T10:11:53.912Z,8.40
2022-09-28T10:14:40.452Z,9.23
2022-09-28T10:17:21.733Z,9.30
2022-09-28T10:20:31.786Z,9.00
2022-09-28T10:23:31.257Z,9.17
2022-09-28T10:26:18.074Z,9.87
2022-09-28T10:29:01.638Z,10.17
2022-09-28T10:31:46.569Z,9.70
2022-09-28T10:34:39.579Z,10.80
2022-09-28T10:37:24.020Z,10.07
2022-09-28T10:40:36.941Z,10.83
2022-09-28T10:43:35.265Z,10.70
2022-09-28T10:46:18.453Z,11.50
2022-09-28T10:49:07.607Z,10.73
2022-09-28T10:51:53.354Z,11.00
2022-09-28T10:54:42.074Z,10.87
2022-09-28T10:57:38.287Z,10.70
2022-09-28T11:00:47.410Z,10.30
2022-09-28T11:03:29.900Z,10.77
2022-09-28T11:06:20.336Z,10.57
2022-09-28T11:09:00.669Z,10.47
2022-09-28T11:11:46.812Z,10.47
2022-09-28T11:14:41.863Z,10.60
2022-09-28T11:17:40.260Z,10.50
2022-09-28T11:20:54.766Z,10.40
2022-09-28T11:23:50.872Z,10.40
2022-09-28T11:26:42.530Z,10.93
2022-09-28T11:29:33.424Z,11.10
2022-09-28T11:32:52.113Z,9.30
2022-09-28T11:35:40.495Z,10.80
2022-09-28T11:38:35.782Z,10.97
2022-09-28T11:41:57.176Z,10.20
2022-09-28T11:44:57.915Z,10.30
2022-09-28T11:47:56.749Z,11.40
2022-09-28T11:50:40.308Z,10.73
2022-09-28T11:53:33.892Z,12.03
2022-09-28T11:56:27.787Z,12.10
2022-09-28T11:59:14.519Z,13.53
2022-09-28T12:02:00.778Z,14.47
2022-09-28T12:05:29.957Z,15.17
2022-09-28T12:08:07.906Z,15.20
2022-09-28T12:11:24.438Z,15.70
2022-09-28T12:14:27.591Z,17.50
2022-09-28T12:17:24.816Z,17.67
2022-09-28T12:20:12.123Z,17.90
2022-09-28T12:23:13.696Z,19.67
2022-09-28T12:26:04.060Z,20.13
2022-09-28T12:28:57.051Z,20.40
2022-09-28T12:32:06.230Z,22.00
2022-09-28T12:34:40.674Z,22.33
2022-09-28T12:37:50.544Z,23.83
2022-09-28T12:40:43.002Z,23.90
2022-09-28T12:43:42.305Z,25.13
2022-09-28T12:46:47.686Z,25.23
2022-09-28T12:52:50.236Z,25.83
2022-09-28T12:55:37.819Z,25.83
2022-09-28T12:58:29.578Z,27.07
2022-09-28T13:01:26.254Z,27.23
2022-09-28T13:04:29.924Z,27.47
2022-09-28T13:07:29.498Z,26.40
2022-09-28T13:10:18.682Z,27.30
2022-09-28T13:13:11.889Z,27.63
2022-09-28T13:15:57.642Z,26.23
2022-09-28T13:18:38.179Z,27.13
2022-09-28T13:21:27.497Z,28.60
2022-09-28T13:24:32.159Z,27.67
2022-09-28T13:27:28.786Z,25.30
2022-09-28T13:30:14.078Z,25.90
2022-09-28T13:33:00.083Z,25.00
2022-09-28T13:35:38.870Z,26.57
2022-09-28T13:38:54.889Z,24.50
2022-09-28T13:41:56.678Z,25.37
2022-09-28T13:45:03.838Z,23.40
2022-09-28T13:48:09.228Z,22.53
2022-09-28T13:51:19.892Z,23.23
2022-09-28T13:54:21.716Z,21.87
2022-09-28T13:57:28.252Z,22.83
2022-09-28T14:00:20.906Z,21.57
2022-09-28T14:03:16.164Z,20.43
2022-09-28T14:09:54.573Z,21.80
2022-09-28T14:12:58.062Z,19.20
2022-09-28T14:15:53.201Z,20.00
2022-09-28T14:18:43.872Z,18.43
2022-09-28T14:21:35.524Z,19.27
2022-09-28T14:24:22.382Z,16.90
2022-09-28T14:27:34.730Z,17.77
2022-09-28T14:30:29.233Z,17.97
2022-09-28T14:33:32.475Z,18.13
2022-09-28T14:36:47.751Z,18.13
2022-09-28T14:39:58.123Z,17.67
2022-09-28T14:42:38.048Z,18.07
2022-09-28T14:45:46.988Z,18.80
2022-09-28T14:48:57.866Z,18.60
2022-09-28T14:52:19.293Z,19.23
2022-09-28T14:55:18.343Z,19.63
2022-09-28T14:58:06.851Z,18.63
2022-09-28T15:00:48.796Z,19.80
2022-09-28T15:03:28.295Z,19.30
2022-09-28T15:06:05.840Z,18.43
2022-09-28T15:08:49.693Z,19.13
2022-09-28T15:11:34.477Z,19.73
2022-09-28T15:14:12.093Z,19.17
2022-09-28T15:16:54.135Z,19.80
2022-09-28T15:19:45.154Z,19.23
2022-09-28T15:22:29.757Z,19.40
2022-09-28T15:25:33.177Z,20.40
2022-09-28T15:28:28.011Z,20.57
2022-09-28T15:34:16.498Z,18.60
2022-09-28T15:37:20.799Z,19.03
2022-09-28T15:39:59.518Z,20.03
2022-09-28T15:43:10.322Z,19.83
2022-09-28T15:46:04.752Z,20.13
2022-09-28T15:48:53.117Z,20.20
2022-09-28T15:51:38.994Z,20.67
2022-09-28T15:54:24.685Z,19.77
2022-09-28T15:57:05.839Z,20.40
2022-09-28T15:59:48.067Z,20.27
2022-09-28T16:02:30.519Z,19.53
2022-09-28T16:05:37.131Z,21.10
2022-09-28T16:08:23.961Z,20.10
2022-09-28T16:11:19.610Z,20.93
2022-09-28T16:14:17.630Z,20.77
2022-09-28T16:17:05.433Z,21.20
2022-09-28T16:19:52.979Z,20.97
2022-09-28T16:22:40.704Z,19.77
2022-09-28T16:25:37.647Z,20.73
2022-09-28T16:28:50.266Z,20.97
2022-09-28T16:31:48.012Z,19.80
2022-09-28T16:34:39.072Z,19.73
2022-09-28T16:37:35.314Z,20.40
2022-09-28T16:40:11.575Z,19.67
2022-09-28T16:42:50.896Z,19.83
2022-09-28T16:45:29.934Z,19.07
2022-09-28T16:48:08.361Z,18.93
2022-09-28T16:50:52.677Z,19.23
2022-09-28T16:53:44.396Z,17.93
2022-09-28T16:56:27.631Z,19.20
2022-09-28T16:59:13.770Z,19.40
2022-09-28T17:01:56.053Z,18.50
2022-09-28T17:04:34.098Z,19.03
2022-09-28T17:07:15.892Z,18.43
2022-09-28T17:09:52.342Z,19.83
2022-09-28T17:12:35.435Z,17.97
2022-09-28T17:15:14.125Z,19.33
2022-09-28T17:18:00.141Z,19.20
2022-09-28T17:20:38.862Z,19.43
2022-09-28T17:23:15.310Z,20.37
2022-09-28T17:25:53.286Z,20.07
2022-09-28T17:28:32.491Z,20.70
2022-09-28T17:31:18.678Z,20.33
2022-09-28T17:34:06.088Z,18.97
2022-09-28T17:36:43.376Z,19.20
2022-09-28T17:39:21.953Z,19.30
2022-09-28T17:42:00.345Z,20.33
2022-09-28T17:44:36.184Z,19.37
2022-09-28T17:47:15.823Z,20.20
2022-09-28T17:49:52.788Z,19.00
2022-09-28T17:52:28.266Z,19.97
2022-09-28T17:55:05.629Z,20.40
2022-09-28T17:57:42.561Z,19.97
2022-09-28T18:00:18.999Z,19.00
2022-09-28T18:02:59.580Z,20.03
2022-09-28T18:06:09.080Z,19.30
2022-09-28T18:08:45.032Z,18.77
2022-09-28T18:11:20.651Z,18.87
2022-09-28T18:13:55.927Z,18.93
2022-09-28T18:16:31.520Z,19.50
2022-09-28T18:19:09.133Z,19.47
2022-09-28T18:21:44.539Z,19.43
2022-09-28T18:24:20.255Z,19.27
2022-09-28T18:26:58.444Z,19.43
2022-09-28T18:29:36.114Z,19.80
2022-09-28T18:32:11.723Z,20.43
2022-09-28T18:34:49.419Z,20.00
2022-09-28T18:37:25.356Z,20.13
2022-09-28T18:40:00.482Z,20.37
2022-09-28T18:42:36.949Z,20.07
2022-09-28T18:45:14.429Z,20.60
2022-09-28T18:47:50.291Z,20.07
2022-09-28T18:50:28.130Z,21.67
2022-09-28T18:53:12.872Z,20.90
2022-09-28T18:55:47.934Z,20.33
2022-09-28T18:58:23.218Z,21.53
2022-09-28T19:01:08.651Z,21.37
2022-09-28T19:03:52.364Z,22.23
2022-09-28T19:06:28.813Z,22.97
2022-09-28T19:09:03.703Z,22.27
2022-09-28T19:11:38.689Z,22.67
2022-09-28T19:14:16.171Z,21.67
2022-09-28T19:16:50.836Z,23.40
2022-09-28T19:19:26.243Z,22.47
2022-09-28T19:22:02.579Z,22.23
2022-09-28T19:24:36.668Z,22.97
2022-09-28T19:27:10.630Z,22.73
2022-09-28T19:29:44.435Z,23.37
2022-09-28T19:32:18.054Z,24.17
2022-09-28T19:34:52.082Z,24.67
2022-09-28T19:37:27.749Z,23.50
2022-09-28T19:40:01.861Z,23.00
2022-09-28T19:42:37.391Z,23.53
2022-09-28T19:45:12.496Z,24.10
2022-09-28T19:47:46.552Z,23.77
2022-09-28T19:50:20.799Z,26.77
2022-09-28T19:52:58.251Z,23.67
2022-09-28T19:55:38.582Z,23.77
2022-09-28T19:58:35.680Z,25.27
2022-09-28T20:01:15.392Z,23.60
2022-09-28T20:03:50.102Z,24.40
2022-09-28T20:06:24.245Z,23.97
2022-09-28T20:09:01.216Z,24.90
2022-09-28T20:11:34.893Z,25.27
2022-09-28T20:14:13.206Z,25.57
2022-09-28T20:16:47.817Z,26.80
2022-09-28T20:19:23.384Z,25.70
2022-09-28T20:22:00.657Z,26.13
2022-09-28T20:24:36.824Z,25.50
2022-09-28T20:27:14.104Z,25.63
2022-09-28T20:29:48.057Z,25.47
2022-09-28T20:32:22.387Z,25.20
2022-09-28T20:34:56.467Z,26.07
2022-09-28T20:37:32.717Z,26.80
2022-09-28T20:40:09.491Z,26.60
2022-09-28T20:42:43.968Z,26.83
2022-09-28T20:45:17.489Z,26.97
2022-09-28T20:47:52.012Z,27.80
2022-09-28T20:50:26.067Z,28.30
2022-09-28T20:53:00.297Z,28.33
2022-09-28T20:55:36.528Z,28.23
2022-09-28T20:58:10.688Z,27.73
2022-09-28T21:00:44.403Z,27.03
2022-09-28T21:03:18.356Z,28.60
2022-09-28T21:05:54.718Z,29.53
2022-09-28T21:08:32.615Z,27.07
2022-09-28T21:11:08.470Z,28.33
2022-09-28T21:13:44.211Z,27.70
2022-09-28T21:16:19.187Z,27.70
2022-09-28T21:18:53.649Z,28.77
2022-09-28T21:21:28.790Z,26.07
2022-09-28T21:24:03.711Z,27.77
2022-09-28T21:26:40.243Z,28.10
2022-09-28T21:29:17.236Z,30.10
2022-09-28T21:34:38.238Z,29.17
2022-09-28T21:37:12.309Z,30.30
2022-09-28T21:39:47.083Z,29.00
2022-09-28T21:42:23.013Z,29.73
2022-09-28T21:44:59.443Z,28.93
2022-09-28T21:47:34.411Z,29.27
2022-09-28T21:50:08.398Z,30.73
2022-09-28T21:52:42.854Z,29.10
2022-09-28T21:55:17.271Z,29.03
2022-09-28T21:57:53.733Z,28.17
2022-09-28T22:00:28.291Z,28.70
2022-09-28T22:03:02.441Z,30.17
2022-09-28T22:05:36.872Z,28.73
2022-09-28T22:08:11.271Z,28.77
2022-09-28T22:10:45.596Z,28.37
2022-09-28T22:13:21.515Z,28.27
2022-09-28T22:15:59.358Z,28.73
2022-09-28T22:18:35.219Z,28.63
2022-09-28T22:21:11.772Z,27.20
2022-09-28T22:23:46.027Z,27.20
2022-09-28T22:26:22.079Z,25.07
2022-09-28T22:28:59.176Z,25.13
2022-09-28T22:31:34.632Z,25.20
2022-09-28T22:34:12.925Z,25.47
2022-09-28T22:36:47.750Z,24.83
2022-09-28T22:39:22.416Z,29.30
2022-09-28T22:41:56.047Z,26.43
2022-09-28T22:44:32.055Z,27.63
2022-09-28T22:47:06.699Z,24.70
2022-09-28T22:49:40.026Z,24.10
2022-09-28T22:52:14.485Z,26.87
2022-09-28T22:54:51.026Z,27.07
2022-09-28T22:57:25.479Z,27.50
2022-09-28T23:00:01.364Z,27.40
2022-09-28T23:02:35.480Z,25.37
2022-09-28T23:05:10.134Z,27.00
2022-09-28T23:07:44.798Z,27.33
2022-09-28T23:10:19.324Z,28.80
2022-09-28T23:12:53.621Z,28.63
2022-09-28T23:15:31.181Z,45.17
2022-09-28T23:18:05.986Z,33.27
2022-09-28T23:20:43.509Z,38.03
2022-09-28T23:23:19.484Z,27.70
2022-09-28T23:25:54.478Z,27.67
2022-09-28T23:28:29.538Z,28.63
2022-09-28T23:31:13.151Z,30.60
2022-09-28T23:33:47.379Z,27.97
2022-09-28T23:36:23.064Z,29.83
2022-09-28T23:38:57.554Z,27.23
2022-09-28T23:41:32.547Z,27.90
2022-09-28T23:44:07.884Z,27.33
2022-09-28T23:46:44.222Z,27.13
2022-09-28T23:49:19.445Z,25.67
2022-09-28T23:51:57.330Z,26.87
2022-09-28T23:54:31.169Z,26.03
2022-09-28T23:57:06.240Z,27.40
2022-09-28T23:59:41.127Z,26.23
